ASE516 ELLX-LOWW
Flight info
| Callsign | ASE516 |
|---|---|
| Flight time | 1h 27m |
| Altitude | 35000 |
| Route | EXCOS 1P.EXCOS Q73 MAPIG Q760 TOMPI Z729 LBU L173 RIXED Y161 RIDAR Z98 MIQ L605 BIBAG Q104 AKIMA DCT VENEN |
| Aircraft | A20N/M-L/2543 |
Departure
| Time | 2026-04-23 21:03 |
|---|---|
| Airport | Luxembourg-Findel International Airport (ELLX) |
Arrival
| Time | 2026-04-23 22:31 |
|---|---|
| Airport | Vienna International Airport (LOWW) |
| Time | Latitude | Longitude | Altitude | Speed | Heading |
|---|---|---|---|---|---|
| 2026-04-23 20:42 | 49.63354 | 6.21689 | 1218 ft | 0 kts | 330° |
| 2026-04-23 20:49 | 49.63350 | 6.21692 | 1218 ft | 2 kts | 330° |
| 2026-04-23 20:50 | 49.63338 | 6.21702 | 1218 ft | 2 kts | 330° |
| 2026-04-23 20:50 | 49.63326 | 6.21712 | 1218 ft | 2 kts | 330° |
| 2026-04-23 20:50 | 49.63310 | 6.21722 | 1218 ft | 2 kts | 6° |
| 2026-04-23 20:50 | 49.63297 | 6.21716 | 1218 ft | 2 kts | 37° |
| 2026-04-23 20:51 | 49.63290 | 6.21707 | 1218 ft | 0 kts | 56° |
| 2026-04-23 20:56 | 49.63298 | 6.21726 | 1218 ft | 5 kts | 56° |
| 2026-04-23 20:56 | 49.63310 | 6.21757 | 1218 ft | 0 kts | 72° |
| 2026-04-23 20:56 | 49.63311 | 6.21766 | 1218 ft | 3 kts | 76° |
| 2026-04-23 20:57 | 49.63299 | 6.21806 | 1218 ft | 6 kts | 136° |
| 2026-04-23 20:57 | 49.63250 | 6.21858 | 1218 ft | 11 kts | 147° |
| 2026-04-23 20:57 | 49.63185 | 6.21908 | 1218 ft | 11 kts | 176° |
| 2026-04-23 20:57 | 49.63132 | 6.21824 | 1218 ft | 14 kts | 241° |
| 2026-04-23 20:58 | 49.63082 | 6.21669 | 1218 ft | 19 kts | 243° |
| 2026-04-23 20:58 | 49.63021 | 6.21465 | 1217 ft | 23 kts | 245° |
| 2026-04-23 20:58 | 49.62948 | 6.21220 | 1217 ft | 27 kts | 244° |
| 2026-04-23 20:58 | 49.62862 | 6.20943 | 1218 ft | 30 kts | 245° |
| 2026-04-23 20:59 | 49.62736 | 6.20670 | 1217 ft | 33 kts | 217° |
| 2026-04-23 20:59 | 49.62569 | 6.20413 | 1219 ft | 35 kts | 230° |
| 2026-04-23 20:59 | 49.62428 | 6.20095 | 1222 ft | 36 kts | 240° |
| 2026-04-23 20:59 | 49.62300 | 6.19752 | 1226 ft | 37 kts | 240° |
| 2026-04-23 21:00 | 49.62195 | 6.19468 | 1223 ft | 31 kts | 240° |
| 2026-04-23 21:00 | 49.62074 | 6.19146 | 1207 ft | 39 kts | 240° |
| 2026-04-23 21:00 | 49.61975 | 6.18878 | 1187 ft | 29 kts | 238° |
| 2026-04-23 21:00 | 49.61899 | 6.18756 | 1173 ft | 0 kts | 218° |
| 2026-04-23 21:01 | 49.61898 | 6.18755 | 1173 ft | 1 kts | 218° |
| 2026-04-23 21:02 | 49.61858 | 6.18711 | 1169 ft | 12 kts | 207° |
| 2026-04-23 21:02 | 49.61782 | 6.18756 | 1170 ft | 12 kts | 125° |
| 2026-04-23 21:02 | 49.61788 | 6.18854 | 1173 ft | 0 kts | 66° |
| 2026-04-23 21:03 | 49.61867 | 6.19066 | 1192 ft | 62 kts | 59° |
| 2026-04-23 21:03 | 49.62206 | 6.19964 | 1226 ft | 130 kts | 59° |
| 2026-04-23 21:03 | 49.62718 | 6.21321 | 1863 ft | 149 kts | 59° |
| 2026-04-23 21:03 | 49.63236 | 6.22734 | 3110 ft | 156 kts | 59° |
| 2026-04-23 21:04 | 49.63814 | 6.24280 | 4232 ft | 174 kts | 59° |
| 2026-04-23 21:04 | 49.64457 | 6.26006 | 4761 ft | 198 kts | 59° |
| 2026-04-23 21:04 | 49.65185 | 6.27954 | 5421 ft | 221 kts | 59° |
| 2026-04-23 21:04 | 49.66003 | 6.30121 | 6142 ft | 246 kts | 59° |
| 2026-04-23 21:05 | 49.66892 | 6.32479 | 6869 ft | 267 kts | 59° |
| 2026-04-23 21:05 | 49.67607 | 6.35141 | 8011 ft | 273 kts | 78° |
| 2026-04-23 21:05 | 49.67548 | 6.38077 | 9170 ft | 280 kts | 104° |
| 2026-04-23 21:05 | 49.66637 | 6.40773 | 10297 ft | 290 kts | 129° |
| 2026-04-23 21:06 | 49.65016 | 6.42731 | 11098 ft | 310 kts | 150° |
| 2026-04-23 21:06 | 49.62951 | 6.44093 | 11612 ft | 336 kts | 159° |
| 2026-04-23 21:06 | 49.60674 | 6.45285 | 12284 ft | 352 kts | 160° |
| 2026-04-23 21:06 | 49.58444 | 6.46883 | 13251 ft | 356 kts | 143° |
| 2026-04-23 21:07 | 49.56687 | 6.49555 | 14219 ft | 357 kts | 122° |
| 2026-04-23 21:07 | 49.55597 | 6.52970 | 15140 ft | 356 kts | 108° |
| 2026-04-23 21:07 | 49.54851 | 6.56623 | 16085 ft | 360 kts | 104° |
| 2026-04-23 21:07 | 49.54167 | 6.60348 | 16988 ft | 364 kts | 104° |
| 2026-04-23 21:08 | 49.53448 | 6.64117 | 17861 ft | 369 kts | 105° |
| 2026-04-23 21:08 | 49.52639 | 6.67896 | 18702 ft | 374 kts | 112° |
| 2026-04-23 21:08 | 49.51415 | 6.71448 | 19495 ft | 378 kts | 120° |
| 2026-04-23 21:08 | 49.50014 | 6.74895 | 20310 ft | 381 kts | 121° |
| 2026-04-23 21:09 | 49.48568 | 6.78331 | 21106 ft | 384 kts | 122° |
| 2026-04-23 21:09 | 49.47119 | 6.81748 | 21871 ft | 387 kts | 122° |
| 2026-04-23 21:09 | 49.45642 | 6.85222 | 22645 ft | 391 kts | 122° |
| 2026-04-23 21:09 | 49.44149 | 6.88732 | 23398 ft | 394 kts | 122° |
| 2026-04-23 21:10 | 49.42643 | 6.92273 | 24126 ft | 397 kts | 122° |
| 2026-04-23 21:10 | 49.41237 | 6.95922 | 24782 ft | 398 kts | 115° |
| 2026-04-23 21:10 | 49.40197 | 6.99868 | 25408 ft | 400 kts | 108° |
| 2026-04-23 21:10 | 49.39218 | 7.03889 | 26021 ft | 403 kts | 113° |
| 2026-04-23 21:11 | 49.37911 | 7.07710 | 26623 ft | 406 kts | 119° |
| 2026-04-23 21:11 | 49.36468 | 7.11464 | 27203 ft | 409 kts | 120° |
| 2026-04-23 21:11 | 49.34905 | 7.15120 | 27770 ft | 412 kts | 124° |
| 2026-04-23 21:11 | 49.33205 | 7.18681 | 28302 ft | 415 kts | 126° |
| 2026-04-23 21:12 | 49.31480 | 7.22203 | 28832 ft | 417 kts | 126° |
| 2026-04-23 21:12 | 49.29738 | 7.25774 | 29319 ft | 420 kts | 125° |
| 2026-04-23 21:12 | 49.28017 | 7.29334 | 29790 ft | 422 kts | 125° |
| 2026-04-23 21:12 | 49.26269 | 7.32977 | 30277 ft | 425 kts | 125° |
| 2026-04-23 21:13 | 49.24544 | 7.36656 | 30680 ft | 427 kts | 122° |
| 2026-04-23 21:13 | 49.23064 | 7.40610 | 31098 ft | 428 kts | 115° |
| 2026-04-23 21:13 | 49.21924 | 7.44817 | 31530 ft | 429 kts | 108° |
| 2026-04-23 21:13 | 49.21135 | 7.49219 | 32063 ft | 428 kts | 102° |
| 2026-04-23 21:14 | 49.20511 | 7.53664 | 32644 ft | 426 kts | 102° |
| 2026-04-23 21:14 | 49.19879 | 7.58081 | 33218 ft | 424 kts | 103° |
| 2026-04-23 21:14 | 49.19244 | 7.62474 | 33781 ft | 422 kts | 103° |
| 2026-04-23 21:14 | 49.18608 | 7.66843 | 34328 ft | 420 kts | 103° |
| 2026-04-23 21:15 | 49.17972 | 7.71188 | 34748 ft | 419 kts | 103° |
| 2026-04-23 21:15 | 49.17341 | 7.75489 | 35098 ft | 420 kts | 103° |
| 2026-04-23 21:15 | 49.16688 | 7.79845 | 35253 ft | 420 kts | 103° |
| 2026-04-23 21:15 | 49.16012 | 7.84188 | 35279 ft | 423 kts | 103° |
| 2026-04-23 21:16 | 49.14616 | 7.93073 | 35268 ft | 439 kts | 103° |
| 2026-04-23 21:16 | 49.13182 | 8.02195 | 35269 ft | 441 kts | 103° |
| 2026-04-23 21:17 | 49.11747 | 8.11299 | 35274 ft | 441 kts | 103° |
| 2026-04-23 21:17 | 49.10304 | 8.20405 | 35268 ft | 441 kts | 103° |
| 2026-04-23 21:18 | 49.08855 | 8.29505 | 35269 ft | 441 kts | 103° |
| 2026-04-23 21:18 | 49.07343 | 8.38560 | 35271 ft | 441 kts | 107° |
| 2026-04-23 21:19 | 49.04886 | 8.47033 | 35269 ft | 443 kts | 119° |
| 2026-04-23 21:19 | 49.01315 | 8.54716 | 35266 ft | 444 kts | 120° |
| 2026-04-23 21:20 | 48.98961 | 8.63317 | 35261 ft | 441 kts | 103° |
| 2026-04-23 21:20 | 48.97785 | 8.72478 | 35268 ft | 440 kts | 98° |
| 2026-04-23 21:21 | 48.96849 | 8.81687 | 35270 ft | 440 kts | 98° |
| 2026-04-23 21:21 | 48.95899 | 8.90896 | 35270 ft | 440 kts | 98° |
| 2026-04-23 21:22 | 48.94937 | 9.00034 | 35262 ft | 440 kts | 98° |
| 2026-04-23 21:22 | 48.93964 | 9.09227 | 35258 ft | 440 kts | 98° |
| 2026-04-23 21:23 | 48.92982 | 9.18420 | 35257 ft | 440 kts | 98° |
| 2026-04-23 21:23 | 48.91992 | 9.27603 | 35263 ft | 440 kts | 98° |
| 2026-04-23 21:24 | 48.91017 | 9.36782 | 35265 ft | 439 kts | 97° |
| 2026-04-23 21:24 | 48.90358 | 9.45955 | 35261 ft | 439 kts | 95° |
| 2026-04-23 21:25 | 48.89727 | 9.55195 | 35262 ft | 439 kts | 95° |
| 2026-04-23 21:25 | 48.89050 | 9.64421 | 35263 ft | 439 kts | 95° |
| 2026-04-23 21:26 | 48.88351 | 9.73655 | 35266 ft | 440 kts | 95° |
| 2026-04-23 21:26 | 48.87652 | 9.82770 | 35266 ft | 440 kts | 95° |
| 2026-04-23 21:27 | 48.86936 | 9.91998 | 35261 ft | 440 kts | 95° |
| 2026-04-23 21:27 | 48.86212 | 10.01232 | 35263 ft | 441 kts | 95° |
| 2026-04-23 21:28 | 48.85481 | 10.10466 | 35272 ft | 441 kts | 95° |
| 2026-04-23 21:28 | 48.84746 | 10.19665 | 35280 ft | 441 kts | 95° |
| 2026-04-23 21:29 | 48.84001 | 10.28903 | 35283 ft | 441 kts | 95° |
| 2026-04-23 21:29 | 48.82953 | 10.38094 | 35286 ft | 445 kts | 105° |
| 2026-04-23 21:30 | 48.80032 | 10.46404 | 35288 ft | 453 kts | 125° |
| 2026-04-23 21:30 | 48.75706 | 10.53446 | 35284 ft | 456 kts | 130° |
| 2026-04-23 21:31 | 48.71385 | 10.60337 | 35285 ft | 456 kts | 130° |
| 2026-04-23 21:31 | 48.67030 | 10.67274 | 35280 ft | 456 kts | 130° |
| 2026-04-23 21:32 | 48.62654 | 10.74260 | 35269 ft | 455 kts | 127° |
| 2026-04-23 21:32 | 48.60815 | 10.78106 | 35271 ft | 450 kts | 116° |
| 2026-04-23 21:32 | 48.59519 | 10.82295 | 35271 ft | 445 kts | 106° |
| 2026-04-23 21:33 | 48.58516 | 10.91401 | 35268 ft | 439 kts | 90° |
| 2026-04-23 21:33 | 48.58285 | 11.00638 | 35266 ft | 439 kts | 90° |
| 2026-04-23 21:34 | 48.58028 | 11.09865 | 35265 ft | 440 kts | 90° |
| 2026-04-23 21:34 | 48.57799 | 11.19085 | 35262 ft | 439 kts | 89° |
| 2026-04-23 21:35 | 48.57647 | 11.28311 | 35264 ft | 439 kts | 89° |
| 2026-04-23 21:35 | 48.57480 | 11.37479 | 35262 ft | 439 kts | 89° |
| 2026-04-23 21:36 | 48.57202 | 11.51242 | 35238 ft | 439 kts | 89° |
| 2026-04-23 21:37 | 48.56830 | 11.60457 | 35244 ft | 441 kts | 95° |
| 2026-04-23 21:37 | 48.55600 | 11.69500 | 35245 ft | 443 kts | 99° |
| 2026-04-23 21:38 | 48.54269 | 11.78598 | 35263 ft | 443 kts | 99° |
| 2026-04-23 21:38 | 48.53164 | 11.86138 | 35262 ft | 443 kts | 99° |
| 2026-04-23 21:39 | 48.51824 | 11.95218 | 35263 ft | 443 kts | 99° |
| 2026-04-23 21:39 | 48.50476 | 12.04290 | 35258 ft | 443 kts | 99° |
| 2026-04-23 21:40 | 48.49121 | 12.13352 | 35258 ft | 443 kts | 99° |
| 2026-04-23 21:40 | 48.47768 | 12.22355 | 35251 ft | 443 kts | 99° |
| 2026-04-23 21:41 | 48.46399 | 12.31411 | 35243 ft | 443 kts | 99° |
| 2026-04-23 21:41 | 48.45023 | 12.40464 | 35244 ft | 443 kts | 99° |
| 2026-04-23 21:42 | 48.43639 | 12.49515 | 35240 ft | 443 kts | 99° |
| 2026-04-23 21:42 | 48.42249 | 12.58552 | 35235 ft | 443 kts | 99° |
| 2026-04-23 21:43 | 48.40853 | 12.67576 | 35235 ft | 443 kts | 99° |
| 2026-04-23 21:43 | 48.39909 | 12.76706 | 35230 ft | 438 kts | 89° |
| 2026-04-23 21:44 | 48.40031 | 12.85840 | 35226 ft | 436 kts | 84° |
| 2026-04-23 21:44 | 48.40311 | 12.94900 | 35229 ft | 436 kts | 84° |
| 2026-04-23 21:45 | 48.40577 | 13.04071 | 35231 ft | 436 kts | 84° |
| 2026-04-23 21:45 | 48.40834 | 13.13186 | 35227 ft | 436 kts | 84° |
| 2026-04-23 21:46 | 48.41083 | 13.22244 | 35229 ft | 436 kts | 84° |
| 2026-04-23 21:46 | 48.41423 | 13.31340 | 35220 ft | 434 kts | 79° |
| 2026-04-23 21:47 | 48.42513 | 13.40244 | 35223 ft | 432 kts | 76° |
| 2026-04-23 21:47 | 48.43663 | 13.49124 | 35225 ft | 432 kts | 76° |
| 2026-04-23 21:48 | 48.44800 | 13.58004 | 35232 ft | 432 kts | 76° |
| 2026-04-23 21:48 | 48.45932 | 13.66900 | 35230 ft | 432 kts | 76° |
| 2026-04-23 21:49 | 48.47058 | 13.75792 | 35225 ft | 432 kts | 76° |
| 2026-04-23 21:49 | 48.48174 | 13.84669 | 35221 ft | 426 kts | 76° |
| 2026-04-23 21:49 | 48.48703 | 13.88928 | 35222 ft | 411 kts | 76° |
| 2026-04-23 21:50 | 48.49223 | 13.93115 | 35077 ft | 405 kts | 76° |
| 2026-04-23 21:50 | 48.49745 | 13.97297 | 34859 ft | 406 kts | 75° |
| 2026-04-23 21:50 | 48.50263 | 14.01460 | 34080 ft | 403 kts | 75° |
| 2026-04-23 21:50 | 48.50784 | 14.05657 | 32546 ft | 411 kts | 75° |
| 2026-04-23 21:51 | 48.51314 | 14.09933 | 30978 ft | 419 kts | 75° |
| 2026-04-23 21:51 | 48.51849 | 14.14286 | 29287 ft | 425 kts | 76° |
| 2026-04-23 21:51 | 48.52389 | 14.18693 | 27454 ft | 430 kts | 76° |
| 2026-04-23 21:51 | 48.52935 | 14.23164 | 25574 ft | 436 kts | 76° |
| 2026-04-23 21:52 | 48.53485 | 14.27689 | 23673 ft | 443 kts | 76° |
| 2026-04-23 21:52 | 48.54040 | 14.32276 | 21918 ft | 441 kts | 76° |
| 2026-04-23 21:52 | 48.54582 | 14.36788 | 20440 ft | 433 kts | 76° |
| 2026-04-23 21:52 | 48.55115 | 14.41238 | 18987 ft | 427 kts | 76° |
| 2026-04-23 21:53 | 48.55639 | 14.45625 | 17510 ft | 421 kts | 76° |
| 2026-04-23 21:53 | 48.56152 | 14.49948 | 16052 ft | 415 kts | 77° |
| 2026-04-23 21:53 | 48.56459 | 14.54199 | 14680 ft | 411 kts | 84° |
| 2026-04-23 21:53 | 48.56456 | 14.58487 | 13309 ft | 408 kts | 90° |
| 2026-04-23 21:54 | 48.56237 | 14.62727 | 11890 ft | 402 kts | 91° |
| 2026-04-23 21:54 | 48.56030 | 14.66911 | 10586 ft | 396 kts | 91° |
| 2026-04-23 21:54 | 48.55827 | 14.71017 | 9511 ft | 386 kts | 91° |
| 2026-04-23 21:54 | 48.55630 | 14.74956 | 8875 ft | 366 kts | 91° |
| 2026-04-23 21:55 | 48.55445 | 14.78657 | 8469 ft | 342 kts | 91° |
| 2026-04-23 21:55 | 48.55270 | 14.82131 | 8242 ft | 320 kts | 90° |
| 2026-04-23 21:55 | 48.55108 | 14.85355 | 8104 ft | 296 kts | 90° |
| 2026-04-23 21:55 | 48.54955 | 14.88405 | 8069 ft | 293 kts | 90° |
| 2026-04-23 21:56 | 48.54807 | 14.91477 | 8060 ft | 291 kts | 90° |
| 2026-04-23 21:56 | 48.54654 | 14.94522 | 8052 ft | 292 kts | 90° |
| 2026-04-23 21:56 | 48.54497 | 14.97594 | 8057 ft | 294 kts | 90° |
| 2026-04-23 21:56 | 48.54338 | 15.00641 | 8063 ft | 292 kts | 90° |
| 2026-04-23 21:57 | 48.54179 | 15.03697 | 8062 ft | 291 kts | 90° |
| 2026-04-23 21:57 | 48.54019 | 15.06748 | 8059 ft | 292 kts | 90° |
| 2026-04-23 21:57 | 48.53860 | 15.09760 | 8050 ft | 292 kts | 90° |
| 2026-04-23 21:57 | 48.53696 | 15.12804 | 8054 ft | 292 kts | 90° |
| 2026-04-23 21:58 | 48.53534 | 15.15851 | 8059 ft | 292 kts | 90° |
| 2026-04-23 21:58 | 48.53372 | 15.18909 | 8048 ft | 292 kts | 90° |
| 2026-04-23 21:58 | 48.53209 | 15.21957 | 8047 ft | 290 kts | 90° |
| 2026-04-23 21:58 | 48.53046 | 15.25002 | 8042 ft | 292 kts | 90° |
| 2026-04-23 21:59 | 48.52882 | 15.28048 | 8038 ft | 291 kts | 90° |
| 2026-04-23 21:59 | 48.52721 | 15.31092 | 8038 ft | 291 kts | 90° |
| 2026-04-23 21:59 | 48.52555 | 15.34135 | 8038 ft | 291 kts | 90° |
| 2026-04-23 22:00 | 48.52217 | 15.40225 | 8042 ft | 291 kts | 90° |
| 2026-04-23 22:00 | 48.52048 | 15.43272 | 8034 ft | 291 kts | 90° |
| 2026-04-23 22:00 | 48.51878 | 15.46308 | 8031 ft | 290 kts | 90° |
| 2026-04-23 22:00 | 48.51710 | 15.49320 | 8030 ft | 292 kts | 90° |
| 2026-04-23 22:01 | 48.51542 | 15.52367 | 8034 ft | 291 kts | 90° |
| 2026-04-23 22:01 | 48.51372 | 15.55408 | 8022 ft | 291 kts | 90° |
| 2026-04-23 22:01 | 48.51203 | 15.58444 | 8026 ft | 290 kts | 90° |
| 2026-04-23 22:01 | 48.51034 | 15.61471 | 8030 ft | 290 kts | 90° |
| 2026-04-23 22:02 | 48.50859 | 15.64523 | 8025 ft | 292 kts | 91° |
| 2026-04-23 22:02 | 48.50682 | 15.67572 | 8022 ft | 291 kts | 91° |
| 2026-04-23 22:02 | 48.50505 | 15.70607 | 8020 ft | 291 kts | 91° |
| 2026-04-23 22:02 | 48.50328 | 15.73632 | 8017 ft | 289 kts | 91° |
| 2026-04-23 22:03 | 48.50151 | 15.76669 | 8019 ft | 291 kts | 91° |
| 2026-04-23 22:03 | 48.49970 | 15.79697 | 8021 ft | 290 kts | 91° |
| 2026-04-23 22:03 | 48.49791 | 15.82733 | 8013 ft | 290 kts | 91° |
| 2026-04-23 22:03 | 48.49614 | 15.85729 | 8014 ft | 290 kts | 91° |
| 2026-04-23 22:04 | 48.49434 | 15.88764 | 8013 ft | 290 kts | 91° |
| 2026-04-23 22:04 | 48.49251 | 15.91834 | 8022 ft | 290 kts | 91° |
| 2026-04-23 22:04 | 48.49070 | 15.94824 | 8011 ft | 291 kts | 91° |
| 2026-04-23 22:04 | 48.48886 | 15.97860 | 8004 ft | 291 kts | 91° |
| 2026-04-23 22:05 | 48.48699 | 16.00896 | 8010 ft | 292 kts | 91° |
| 2026-04-23 22:05 | 48.48512 | 16.03933 | 8007 ft | 290 kts | 91° |
| 2026-04-23 22:05 | 48.48126 | 16.06925 | 8007 ft | 296 kts | 109° |
| 2026-04-23 22:05 | 48.46961 | 16.09497 | 8006 ft | 302 kts | 136° |
| 2026-04-23 22:06 | 48.45174 | 16.11119 | 8010 ft | 302 kts | 162° |
| 2026-04-23 22:06 | 48.43111 | 16.11678 | 8006 ft | 301 kts | 178° |
| 2026-04-23 22:06 | 48.41014 | 16.11813 | 8011 ft | 301 kts | 180° |
| 2026-04-23 22:06 | 48.38924 | 16.11940 | 8007 ft | 301 kts | 179° |
| 2026-04-23 22:07 | 48.36826 | 16.12168 | 7999 ft | 302 kts | 176° |
| 2026-04-23 22:07 | 48.34734 | 16.12487 | 8001 ft | 303 kts | 175° |
| 2026-04-23 22:07 | 48.32640 | 16.12859 | 8009 ft | 304 kts | 174° |
| 2026-04-23 22:07 | 48.30570 | 16.13247 | 8006 ft | 302 kts | 174° |
| 2026-04-23 22:08 | 48.28477 | 16.13650 | 7999 ft | 304 kts | 174° |
| 2026-04-23 22:08 | 48.26413 | 16.14050 | 8007 ft | 302 kts | 174° |
| 2026-04-23 22:08 | 48.24321 | 16.14451 | 8005 ft | 303 kts | 174° |
| 2026-04-23 22:08 | 48.22219 | 16.14852 | 8000 ft | 305 kts | 174° |
| 2026-04-23 22:09 | 48.20119 | 16.15252 | 8011 ft | 303 kts | 174° |
| 2026-04-23 22:09 | 48.18032 | 16.15647 | 7997 ft | 304 kts | 174° |
| 2026-04-23 22:09 | 48.15925 | 16.16046 | 7995 ft | 304 kts | 174° |
| 2026-04-23 22:09 | 48.13818 | 16.16444 | 7998 ft | 304 kts | 174° |
| 2026-04-23 22:10 | 48.11715 | 16.16841 | 7998 ft | 304 kts | 174° |
| 2026-04-23 22:10 | 48.09608 | 16.17236 | 8000 ft | 306 kts | 174° |
| 2026-04-23 22:10 | 48.07494 | 16.17633 | 8012 ft | 307 kts | 174° |
| 2026-04-23 22:10 | 48.05377 | 16.18035 | 7988 ft | 306 kts | 174° |
| 2026-04-23 22:11 | 48.03262 | 16.18433 | 7999 ft | 306 kts | 174° |
| 2026-04-23 22:11 | 48.01147 | 16.18830 | 7999 ft | 307 kts | 174° |
| 2026-04-23 22:11 | 47.99032 | 16.19226 | 7996 ft | 306 kts | 174° |
| 2026-04-23 22:11 | 47.96920 | 16.19622 | 7994 ft | 306 kts | 174° |
| 2026-04-23 22:12 | 47.94806 | 16.20018 | 7994 ft | 307 kts | 174° |
| 2026-04-23 22:12 | 47.92683 | 16.20417 | 7994 ft | 308 kts | 174° |
| 2026-04-23 22:12 | 47.90556 | 16.20814 | 7990 ft | 308 kts | 174° |
| 2026-04-23 22:12 | 47.88431 | 16.21209 | 7990 ft | 308 kts | 174° |
| 2026-04-23 22:13 | 47.86304 | 16.21604 | 7987 ft | 308 kts | 174° |
| 2026-04-23 22:13 | 47.84176 | 16.22044 | 7993 ft | 310 kts | 168° |
| 2026-04-23 22:13 | 47.82223 | 16.23357 | 7994 ft | 309 kts | 141° |
| 2026-04-23 22:13 | 47.80830 | 16.25674 | 7986 ft | 303 kts | 115° |
| 2026-04-23 22:14 | 47.80214 | 16.28586 | 7971 ft | 290 kts | 89° |
| 2026-04-23 22:14 | 47.80460 | 16.31456 | 7701 ft | 275 kts | 63° |
| 2026-04-23 22:14 | 47.81488 | 16.33749 | 7315 ft | 261 kts | 36° |
| 2026-04-23 22:14 | 47.82947 | 16.35300 | 6911 ft | 256 kts | 26° |
| 2026-04-23 22:15 | 47.84436 | 16.36752 | 6525 ft | 256 kts | 29° |
| 2026-04-23 22:15 | 47.85844 | 16.38383 | 6164 ft | 255 kts | 34° |
| 2026-04-23 22:15 | 47.87154 | 16.40177 | 6025 ft | 260 kts | 38° |
| 2026-04-23 22:15 | 47.88262 | 16.42349 | 5992 ft | 267 kts | 55° |
| 2026-04-23 22:16 | 47.88929 | 16.44923 | 5999 ft | 274 kts | 68° |
| 2026-04-23 22:16 | 47.89421 | 16.47669 | 5991 ft | 273 kts | 68° |
| 2026-04-23 22:16 | 47.89676 | 16.50496 | 5993 ft | 283 kts | 89° |
| 2026-04-23 22:16 | 47.89090 | 16.53343 | 5990 ft | 294 kts | 116° |
| 2026-04-23 22:17 | 47.87724 | 16.55581 | 5987 ft | 289 kts | 144° |
| 2026-04-23 22:17 | 47.85941 | 16.56725 | 6000 ft | 278 kts | 167° |
| 2026-04-23 22:17 | 47.84019 | 16.57269 | 5986 ft | 281 kts | 173° |
| 2026-04-23 22:17 | 47.82099 | 16.57746 | 5984 ft | 279 kts | 171° |
| 2026-04-23 22:18 | 47.80216 | 16.58319 | 5981 ft | 280 kts | 168° |
| 2026-04-23 22:18 | 47.78317 | 16.59003 | 5979 ft | 281 kts | 166° |
| 2026-04-23 22:18 | 47.76448 | 16.59744 | 5976 ft | 272 kts | 166° |
| 2026-04-23 22:18 | 47.74643 | 16.60488 | 5979 ft | 271 kts | 165° |
| 2026-04-23 22:19 | 47.72827 | 16.61247 | 5976 ft | 271 kts | 165° |
| 2026-04-23 22:19 | 47.71009 | 16.62007 | 5974 ft | 272 kts | 165° |
| 2026-04-23 22:19 | 47.69197 | 16.62790 | 5974 ft | 271 kts | 159° |
| 2026-04-23 22:19 | 47.67677 | 16.64287 | 5972 ft | 256 kts | 127° |
| 2026-04-23 22:20 | 47.66871 | 16.66558 | 5968 ft | 245 kts | 94° |
| 2026-04-23 22:20 | 47.66922 | 16.68957 | 5983 ft | 226 kts | 67° |
| 2026-04-23 22:20 | 47.67419 | 16.71055 | 5969 ft | 208 kts | 58° |
| 2026-04-23 22:20 | 47.68025 | 16.73009 | 5964 ft | 200 kts | 48° |
| 2026-04-23 22:21 | 47.69001 | 16.74405 | 5971 ft | 196 kts | 23° |
| 2026-04-23 22:21 | 47.70259 | 16.74957 | 5949 ft | 185 kts | 358° |
| 2026-04-23 22:21 | 47.71510 | 16.74634 | 5673 ft | 183 kts | 343° |
| 2026-04-23 22:21 | 47.72736 | 16.74101 | 5327 ft | 184 kts | 343° |
| 2026-04-23 22:22 | 47.73966 | 16.73581 | 5020 ft | 183 kts | 344° |
| 2026-04-23 22:22 | 47.75186 | 16.73075 | 4801 ft | 176 kts | 345° |
| 2026-04-23 22:22 | 47.76301 | 16.72621 | 4557 ft | 161 kts | 345° |
| 2026-04-23 22:22 | 47.77373 | 16.72187 | 4166 ft | 158 kts | 345° |
| 2026-04-23 22:23 | 47.78434 | 16.71756 | 4006 ft | 161 kts | 345° |
| 2026-04-23 22:23 | 47.79509 | 16.71319 | 3979 ft | 160 kts | 345° |
| 2026-04-23 22:23 | 47.80578 | 16.70884 | 3975 ft | 159 kts | 345° |
| 2026-04-23 22:23 | 47.81651 | 16.70440 | 3985 ft | 161 kts | 344° |
| 2026-04-23 22:24 | 47.82717 | 16.69997 | 3982 ft | 159 kts | 345° |
| 2026-04-23 22:24 | 47.83790 | 16.69553 | 3995 ft | 160 kts | 345° |
| 2026-04-23 22:24 | 47.84860 | 16.69109 | 3976 ft | 158 kts | 345° |
| 2026-04-23 22:24 | 47.85555 | 16.68821 | 3863 ft | 155 kts | 345° |
| 2026-04-23 22:25 | 47.86599 | 16.68399 | 3535 ft | 156 kts | 345° |
| 2026-04-23 22:25 | 47.87643 | 16.67980 | 3144 ft | 154 kts | 345° |
| 2026-04-23 22:25 | 47.88944 | 16.67455 | 2995 ft | 149 kts | 345° |
| 2026-04-23 22:25 | 47.89951 | 16.67046 | 2980 ft | 147 kts | 345° |
| 2026-04-23 22:26 | 47.90606 | 16.66773 | 2985 ft | 148 kts | 345° |
| 2026-04-23 22:26 | 47.91595 | 16.66379 | 2993 ft | 147 kts | 346° |
| 2026-04-23 22:26 | 47.92563 | 16.65998 | 2997 ft | 148 kts | 345° |
| 2026-04-23 22:26 | 47.93554 | 16.65584 | 2994 ft | 148 kts | 345° |
| 2026-04-23 22:27 | 47.94533 | 16.65172 | 2993 ft | 146 kts | 345° |
| 2026-04-23 22:27 | 47.95515 | 16.64759 | 3003 ft | 148 kts | 345° |
| 2026-04-23 22:27 | 47.96509 | 16.64342 | 2997 ft | 148 kts | 345° |
| 2026-04-23 22:27 | 47.97499 | 16.63924 | 2895 ft | 150 kts | 345° |
| 2026-04-23 22:28 | 47.98512 | 16.63498 | 2735 ft | 151 kts | 345° |
| 2026-04-23 22:28 | 47.99491 | 16.63085 | 2502 ft | 140 kts | 345° |
| 2026-04-23 22:28 | 48.00418 | 16.62699 | 2317 ft | 139 kts | 345° |
| 2026-04-23 22:28 | 48.01351 | 16.62304 | 2131 ft | 138 kts | 345° |
| 2026-04-23 22:29 | 48.02246 | 16.61925 | 1942 ft | 127 kts | 344° |
| 2026-04-23 22:29 | 48.03077 | 16.61577 | 1769 ft | 126 kts | 343° |
| 2026-04-23 22:29 | 48.03917 | 16.61215 | 1608 ft | 126 kts | 343° |
| 2026-04-23 22:29 | 48.04793 | 16.60847 | 1432 ft | 130 kts | 343° |
| 2026-04-23 22:30 | 48.05670 | 16.60479 | 1259 ft | 133 kts | 343° |
| 2026-04-23 22:30 | 48.06575 | 16.60096 | 1088 ft | 138 kts | 343° |
| 2026-04-23 22:30 | 48.07474 | 16.59717 | 918 ft | 133 kts | 343° |
| 2026-04-23 22:30 | 48.08376 | 16.59335 | 729 ft | 134 kts | 343° |
| 2026-04-23 22:31 | 48.09255 | 16.58967 | 614 ft | 121 kts | 343° |
| 2026-04-23 22:31 | 48.09769 | 16.58740 | 611 ft | 34 kts | 344° |
| 2026-04-23 22:31 | 48.09813 | 16.58721 | 615 ft | 0 kts | 344° |
| 2026-04-23 22:31 | 48.09911 | 16.58682 | 612 ft | 22 kts | 345° |
| 2026-04-23 22:32 | 48.10092 | 16.58616 | 615 ft | 31 kts | 346° |
| 2026-04-23 22:32 | 48.10308 | 16.58526 | 621 ft | 34 kts | 342° |
| 2026-04-23 22:32 | 48.10527 | 16.58430 | 613 ft | 35 kts | 344° |
| 2026-04-23 22:32 | 48.10717 | 16.58288 | 615 ft | 34 kts | 321° |
| 2026-04-23 22:33 | 48.10799 | 16.58168 | 617 ft | 0 kts | 314° |
| 2026-04-23 22:33 | 48.10832 | 16.58119 | 610 ft | 14 kts | 315° |
| 2026-04-23 22:33 | 48.10911 | 16.58008 | 613 ft | 21 kts | 323° |
| 2026-04-23 22:33 | 48.11034 | 16.57936 | 617 ft | 8 kts | 342° |
| 2026-04-23 22:34 | 48.11038 | 16.57934 | 615 ft | 0 kts | 342° |
| 2026-04-23 22:34 | 48.11047 | 16.57930 | 618 ft | 7 kts | 342° |
| 2026-04-23 22:34 | 48.11138 | 16.57889 | 621 ft | 20 kts | 343° |
| 2026-04-23 22:34 | 48.11296 | 16.57829 | 620 ft | 27 kts | 343° |
| 2026-04-23 22:35 | 48.11378 | 16.57792 | 612 ft | 16 kts | 344° |
| 2026-04-23 22:35 | 48.11466 | 16.57753 | 622 ft | 13 kts | 336° |
| 2026-04-23 22:35 | 48.11530 | 16.57610 | 625 ft | 20 kts | 292° |
| 2026-04-23 22:35 | 48.11548 | 16.57547 | 621 ft | 0 kts | 290° |
| 2026-04-23 22:36 | 48.11525 | 16.57492 | 613 ft | 14 kts | 217° |
| 2026-04-23 22:36 | 48.11408 | 16.57399 | 615 ft | 22 kts | 206° |
| 2026-04-23 22:36 | 48.11354 | 16.57358 | 609 ft | 9 kts | 207° |
| 2026-04-23 22:36 | 48.11316 | 16.57329 | 609 ft | 7 kts | 207° |
| 2026-04-23 22:37 | 48.11305 | 16.57320 | 621 ft | 1 kts | 216° |
| 2026-04-23 22:37 | 48.11306 | 16.57284 | 616 ft | 10 kts | 272° |
| 2026-04-23 22:37 | 48.11350 | 16.57125 | 612 ft | 23 kts | 296° |
| 2026-04-23 22:37 | 48.11434 | 16.56872 | 621 ft | 26 kts | 297° |
| 2026-04-23 22:38 | 48.11475 | 16.56741 | 618 ft | 18 kts | 294° |
| 2026-04-23 22:38 | 48.11543 | 16.56539 | 618 ft | 25 kts | 295° |
| 2026-04-23 22:38 | 48.11604 | 16.56349 | 623 ft | 12 kts | 296° |
| 2026-04-23 22:38 | 48.11622 | 16.56294 | 622 ft | 3 kts | 296° |
| 2026-04-23 22:39 | 48.11655 | 16.56192 | 622 ft | 18 kts | 296° |
| 2026-04-23 22:39 | 48.11688 | 16.56088 | 622 ft | 5 kts | 295° |
| 2026-04-23 22:39 | 48.11714 | 16.56004 | 613 ft | 9 kts | 295° |
| 2026-04-23 22:39 | 48.11753 | 16.55883 | 618 ft | 9 kts | 296° |
| 2026-04-23 22:40 | 48.11817 | 16.55801 | 611 ft | 15 kts | 12° |
| 2026-04-23 22:40 | 48.11901 | 16.55847 | 618 ft | 10 kts | 21° |
| 2026-04-23 22:40 | 48.11961 | 16.55865 | 616 ft | 8 kts | 325° |
| 2026-04-23 22:41 | 48.11977 | 16.55834 | 609 ft | 0 kts | 307° |
| 2026-04-23 22:41 | 48.11977 | 16.55832 | 609 ft | 0 kts | 295° |